Time;durP1;ratioP1;P1;durP2;ratioP2;P2;SDS_P1;SDS_P2;PMS_P1;PMS_P2;Temp;Humidity;BMP_temperature;BMP_pressure;BME280_temperature;BME280_humidity;BME280_pressure;Samples;Min_cycle;Max_cycle;Signal;HPM_P1;HPM_P2
2023/04/27 00:00:22;;;;;;;;;;;;;;;1.54;100.00;102062.88;4991958;28;20013;-72
2023/04/27 00:02:47;;;;;;;;;;;;;;;1.51;100.00;102070.88;4963006;28;19922;-72
2023/04/27 00:05:12;;;;;;;;;;;;;;;1.44;100.00;102066.59;4980382;28;20404;-72
2023/04/27 00:07:38;;;;;;;;;;;;;;;1.37;100.00;102080.84;4982084;28;19925;-72
2023/04/27 00:10:03;;;;;;;;;;;;;;;1.27;100.00;102075.75;4980192;28;20423;-72
2023/04/27 00:12:28;;;;;;;;;;;;;;;1.24;100.00;102086.38;4982741;28;19922;-72
2023/04/27 00:14:53;;;;;;;;;;;;;;;1.10;100.00;102072.50;4980161;28;20028;-72
2023/04/27 00:17:19;;;;;;;;;;;;;;;1.19;100.00;102086.44;4997423;28;20465;-72
2023/04/27 00:19:46;;;;;;;;;;;;;;;1.19;100.00;102086.44;4980523;28;19930;-72
2023/04/27 00:22:11;;;;;;;;;;;;;;;1.16;100.00;102090.91;4982233;28;20361;-72
2023/04/27 00:24:36;;;;;;;;;;;;;;;1.16;100.00;102085.63;4982057;28;19922;-72
2023/04/27 00:27:02;;;;;;;;;;;;;;;1.05;100.00;102091.13;4994271;28;19933;-72
2023/04/27 00:29:27;;;;;;;;;;;;;;;0.95;100.00;102085.13;4981276;28;19973;-72
2023/04/27 00:31:52;;;;;;;;;;;;;;;0.91;100.00;102077.28;4982293;28;20095;-72
2023/04/27 00:34:17;;;;;;;;;;;;;;;0.88;100.00;102076.44;4982724;28;19941;-71
2023/04/27 00:36:42;;;;;;;;;;;;;;;0.83;100.00;102091.50;5000954;28;19961;-72
2023/04/27 00:39:08;;;;;;;;;;;;;;;0.86;100.00;102091.44;4981740;28;19960;-72
2023/04/27 00:41:35;;;;;;;;;;;;;;;0.76;100.00;102067.84;4980107;28;20023;-72
2023/04/27 00:44:01;;;;;;;;;;;;;;;0.80;100.00;102086.25;4981053;28;19922;-72
2023/04/27 00:46:27;;;;;;;;;;;;;;;0.79;100.00;102086.31;4981724;28;19921;-72
2023/04/27 00:48:52;;;;;;;;;;;;;;;0.80;100.00;102082.72;4975442;28;19932;-72
2023/04/27 00:51:18;;;;;;;;;;;;;;;0.79;100.00;102081.00;4976842;28;20008;-72
2023/04/27 00:53:43;;;;;;;;;;;;;;;0.82;100.00;102083.56;4977888;28;20012;-72
2023/04/27 00:56:08;;;;;;;;;;;;;;;0.79;100.00;102087.16;4979436;28;20358;-72
2023/04/27 00:58:33;;;;;;;;;;;;;;;0.78;100.00;102090.69;4993688;28;19926;-72
2023/04/27 01:00:59;;;;;;;;;;;;;;;0.73;100.00;102084.59;4977622;28;19968;-72
2023/04/27 01:03:25;;;;;;;;;;;;;;;0.67;100.00;102088.22;4993558;28;20039;-72
2023/04/27 01:05:50;;;;;;;;;;;;;;;0.65;100.00;102081.25;4977526;28;20331;-72
2023/04/27 01:08:15;;;;;;;;;;;;;;;0.55;100.00;102081.38;4976663;28;19925;-72
2023/04/27 01:10:41;;;;;;;;;;;;;;;0.47;100.00;102085.91;4979501;28;19964;-72
2023/04/27 01:13:06;;;;;;;;;;;;;;;0.42;100.00;102085.97;4992812;28;20432;-72
2023/04/27 01:15:31;;;;;;;;;;;;;;;0.40;100.00;102086.88;4977437;28;20510;-72
2023/04/27 01:18:00;;;;;;;;;;;;;;;0.35;100.00;102086.97;4992122;28;20408;-72
2023/04/27 01:20:29;;;;;;;;;;;;;;;0.34;100.00;102079.06;4992893;28;20455;-72
2023/04/27 01:22:55;;;;;;;;;;;;;;;0.32;100.00;102080.84;4994080;28;20253;-72
2023/04/27 01:25:20;;;;;;;;;;;;;;;0.31;100.00;102087.91;4992599;28;20810;-72
2023/04/27 01:27:45;;;;;;;;;;;;;;;0.33;100.00;102082.59;4979947;28;19949;-72
2023/04/27 01:30:11;;;;;;;;;;;;;;;0.31;100.00;102084.41;4991811;28;19940;-72
2023/04/27 01:32:37;;;;;;;;;;;;;;;0.27;100.00;102084.44;4978864;28;19921;-72
2023/04/27 01:35:02;;;;;;;;;;;;;;;0.17;100.00;102080.16;4993339;28;20364;-72
2023/04/27 01:37:27;;;;;;;;;;;;;;;0.11;100.00;102080.28;4992914;28;19925;-72
2023/04/27 01:39:52;;;;;;;;;;;;;;;0.09;100.00;102087.34;4991986;28;19929;-72
2023/04/27 01:42:18;;;;;;;;;;;;;;;0.09;100.00;102084.72;4977343;28;20312;-72
2023/04/27 01:44:43;;;;;;;;;;;;;;;0.06;100.00;102082.09;4978035;28;20336;-71
2023/04/27 01:47:08;;;;;;;;;;;;;;;0.06;100.00;102082.09;4977311;28;20347;-72
2023/04/27 01:49:33;;;;;;;;;;;;;;;0.04;100.00;102078.63;4977769;28;20016;-71
2023/04/27 01:51:59;;;;;;;;;;;;;;;0.04;100.00;102082.09;4975909;28;19929;-72
2023/04/27 01:54:25;;;;;;;;;;;;;;;0.03;100.00;102080.38;4976409;28;19922;-72
2023/04/27 01:56:50;;;;;;;;;;;;;;;0.02;100.00;102086.53;4976062;28;20340;-72
2023/04/27 01:59:15;;;;;;;;;;;;;;;0.01;100.00;102082.16;4975056;28;20292;-72
2023/04/27 02:01:41;;;;;;;;;;;;;;;-0.01;100.00;102078.69;4980027;28;20946;-72
2023/04/27 02:04:06;;;;;;;;;;;;;;;-0.04;100.00;102070.81;4992119;28;20365;-72
2023/04/27 02:06:31;;;;;;;;;;;;;;;-0.06;100.00;102069.94;4979182;28;19921;-72
2023/04/27 02:08:56;;;;;;;;;;;;;;;-0.11;100.00;102075.28;4993945;28;20462;-72
2023/04/27 02:11:22;;;;;;;;;;;;;;;-0.02;100.00;102074.28;4977925;28;20004;-72
2023/04/27 02:13:47;;;;;;;;;;;;;;;0.03;100.00;102067.16;4977569;28;19922;-72
2023/04/27 02:16:12;;;;;;;;;;;;;;;0.09;100.00;102069.72;4975954;28;19922;-72
2023/04/27 02:18:38;;;;;;;;;;;;;;;0.13;100.00;102067.94;4976432;28;19933;-71
2023/04/27 02:21:09;;;;;;;;;;;;;;;0.08;100.00;102062.69;4978343;28;19929;-72
2023/04/27 02:23:34;;;;;;;;;;;;;;;0.10;100.00;102067.97;4992992;28;19921;-73
2023/04/27 02:25:59;;;;;;;;;;;;;;;0.12;100.00;102059.13;4976597;28;20265;-72
2023/04/27 02:28:25;;;;;;;;;;;;;;;0.04;100.00;102063.63;4993556;28;19965;-72
2023/04/27 02:30:50;;;;;;;;;;;;;;;-0.01;100.00;102062.84;4979781;28;20032;-72
2023/04/27 02:33:16;;;;;;;;;;;;;;;-0.01;100.00;102063.69;4986937;28;20346;-72
2023/04/27 02:35:41;;;;;;;;;;;;;;;-0.02;100.00;102056.66;4981649;28;19921;-71
2023/04/27 02:38:06;;;;;;;;;;;;;;;-0.11;100.00;102053.28;4976532;28;19989;-72
2023/04/27 02:40:31;;;;;;;;;;;;;;;-0.16;100.00;102053.38;4981055;28;20012;-72
2023/04/27 02:42:56;;;;;;;;;;;;;;;-0.20;100.00;102055.16;4996315;28;19921;-72
2023/04/27 02:45:22;;;;;;;;;;;;;;;-0.19;100.00;102046.34;4984527;28;20551;-71
2023/04/27 02:47:47;;;;;;;;;;;;;;;-0.19;100.00;102041.06;4980866;28;20386;-72
2023/04/27 02:50:13;;;;;;;;;;;;;;;-0.27;100.00;102042.94;4977433;28;19921;-72
2023/04/27 02:52:38;;;;;;;;;;;;;;;-0.29;100.00;102047.38;4963504;28;19922;-72
2023/04/27 02:55:03;;;;;;;;;;;;;;;-0.34;100.00;102042.13;4979619;28;19944;-71
2023/04/27 02:57:28;;;;;;;;;;;;;;;-0.36;100.00;102043.06;4974035;28;20669;-71
2023/04/27 02:59:54;;;;;;;;;;;;;;;-0.38;100.00;102039.56;4978917;28;19925;-72
2023/04/27 03:02:19;;;;;;;;;;;;;;;-0.44;100.00;102048.44;4996882;28;19972;-72
2023/04/27 03:04:44;;;;;;;;;;;;;;;-0.42;100.00;102044.00;4979711;28;19953;-72
2023/04/27 03:07:11;;;;;;;;;;;;;;;-0.38;100.00;102052.75;4994218;28;19988;-72
2023/04/27 03:09:36;;;;;;;;;;;;;;;-0.38;100.00;102044.84;4996308;28;19976;-71
2023/04/27 03:12:01;;;;;;;;;;;;;;;-0.37;100.00;102046.59;4979010;28;19945;-72
2023/04/27 03:14:27;;;;;;;;;;;;;;;-0.34;100.00;102049.19;4982016;28;19929;-72
2023/04/27 03:16:54;;;;;;;;;;;;;;;-0.34;100.00;102051.81;4981896;28;19929;-72
2023/04/27 03:19:19;;;;;;;;;;;;;;;-0.31;100.00;102054.44;4997495;28;19926;-72
2023/04/27 03:21:45;;;;;;;;;;;;;;;-0.29;100.00;102054.41;4994303;28;19999;-72
2023/04/27 03:24:10;;;;;;;;;;;;;;;-0.32;100.00;102056.19;4994263;28;19926;-72
2023/04/27 03:26:35;;;;;;;;;;;;;;;-0.35;100.00;102053.56;4985017;28;19984;-71
2023/04/27 03:29:00;;;;;;;;;;;;;;;-0.37;100.00;102055.34;4982267;28;20320;-71
2023/04/27 03:31:26;;;;;;;;;;;;;;;-0.42;100.00;102056.31;4977516;28;20463;-72
2023/04/27 03:33:51;;;;;;;;;;;;;;;-0.46;100.00;102056.34;4979037;28;20436;-71
2023/04/27 03:36:16;;;;;;;;;;;;;;;-0.46;100.00;102059.00;4960613;28;20428;-72
2023/04/27 03:38:41;;;;;;;;;;;;;;;-0.49;100.00;102060.81;4961531;28;20444;-71
2023/04/27 03:41:07;;;;;;;;;;;;;;;-0.56;100.00;102062.66;4965019;28;20275;-72
2023/04/27 03:43:32;;;;;;;;;;;;;;;-0.63;100.00;102067.09;4993693;28;19964;-72
2023/04/27 03:45:57;;;;;;;;;;;;;;;-0.73;100.00;102059.31;4979922;28;20004;-72
2023/04/27 03:48:22;;;;;;;;;;;;;;;-0.64;100.00;102068.00;4979594;28;19947;-71
2023/04/27 03:50:48;;;;;;;;;;;;;;;-0.65;100.00;102079.44;4978804;28;19956;-72
2023/04/27 03:53:13;;;;;;;;;;;;;;;-0.84;100.00;102046.25;4963244;28;20148;-72
2023/04/27 03:55:42;;;;;;;;;;;;;;;-0.64;100.00;102072.41;4962945;28;20016;-72
2023/04/27 03:58:09;;;;;;;;;;;;;;;-0.66;100.00;102068.91;4960677;28;19926;-71
2023/04/27 04:00:34;;;;;;;;;;;;;;;-0.68;100.00;102079.50;4974095;28;20009;-71
2023/04/27 04:03:00;;;;;;;;;;;;;;;-0.76;100.00;102074.28;4977710;28;19928;-72
2023/04/27 04:05:25;;;;;;;;;;;;;;;-0.80;100.00;102074.34;4976729;28;19921;-72
2023/04/27 04:07:50;;;;;;;;;;;;;;;-0.80;100.00;102075.22;4977463;28;19945;-72
2023/04/27 04:10:16;;;;;;;;;;;;;;;-0.82;100.00;102081.38;4980844;28;19929;-72
2023/04/27 04:12:41;;;;;;;;;;;;;;;-0.81;100.00;102086.66;4977650;28;19996;-71
2023/04/27 04:15:06;;;;;;;;;;;;;;;-0.78;100.00;102078.69;4995520;28;19933;-72
2023/04/27 04:17:32;;;;;;;;;;;;;;;-0.77;100.00;102074.31;4958236;28;19961;-71
2023/04/27 04:19:58;;;;;;;;;;;;;;;-0.73;100.00;102083.03;4977371;28;19953;-71
2023/04/27 04:22:23;;;;;;;;;;;;;;;-0.73;100.00;102083.03;4961922;28;19925;-71
2023/04/27 04:24:48;;;;;;;;;;;;;;;-0.71;100.00;102084.81;4978248;28;20436;-72
2023/04/27 04:27:13;;;;;;;;;;;;;;;-0.71;100.00;102078.63;4976300;28;19926;-71
2023/04/27 04:29:39;;;;;;;;;;;;;;;-0.69;100.00;102088.28;4959193;28;19952;-72
2023/04/27 04:32:06;;;;;;;;;;;;;;;-0.68;100.00;102091.78;4964810;28;19961;-72
2023/04/27 04:34:32;;;;;;;;;;;;;;;-0.69;100.00;102093.56;4977875;28;19921;-72
2023/04/27 04:36:57;;;;;;;;;;;;;;;-0.67;100.00;102096.19;4977660;28;19922;-72
2023/04/27 04:39:22;;;;;;;;;;;;;;;-0.65;100.00;102100.53;4961693;28;19936;-72
2023/04/27 04:41:48;;;;;;;;;;;;;;;-0.62;100.00;102105.78;4979753;28;20025;-71
2023/04/27 04:44:14;;;;;;;;;;;;;;;-0.57;100.00;102107.50;4995223;28;19925;-72
2023/04/27 04:46:39;;;;;;;;;;;;;;;-0.51;100.00;102123.28;4981269;28;19921;-72
2023/04/27 04:49:05;;;;;;;;;;;;;;;-0.54;100.00;102116.28;4980258;28;20416;-72
2023/04/27 04:51:30;;;;;;;;;;;;;;;-0.52;100.00;102114.47;4975333;28;19968;-72
2023/04/27 04:53:55;;;;;;;;;;;;;;;-0.51;100.00;102115.34;4976932;28;19945;-71
2023/04/27 04:56:21;;;;;;;;;;;;;;;-0.47;100.00;102109.16;4990312;28;20082;-71
2023/04/27 04:58:46;;;;;;;;;;;;;;;-0.43;100.00;102105.59;4972741;28;20012;-72
2023/04/27 05:01:11;;;;;;;;;;;;;;;-0.42;100.00;102111.75;4978164;28;20305;-72
2023/04/27 05:03:36;;;;;;;;;;;;;;;-0.37;100.00;102112.56;4978748;28;19975;-71
2023/04/27 05:06:02;;;;;;;;;;;;;;;-0.38;100.00;102111.66;4978385;28;19930;-72
2023/04/27 05:08:27;;;;;;;;;;;;;;;-0.33;100.00;102114.28;4978330;28;19953;-71
2023/04/27 05:10:52;;;;;;;;;;;;;;;-0.25;100.00;102127.38;4976136;28;20057;-72
2023/04/27 05:13:18;;;;;;;;;;;;;;;-0.18;100.00;102121.16;4975643;28;20007;-72
2023/04/27 05:15:43;;;;;;;;;;;;;;;-0.11;100.00;102121.94;4979750;28;20032;-72
2023/04/27 05:18:08;;;;;;;;;;;;;;;-0.02;100.00;102125.31;4976874;28;20122;-72
2023/04/27 05:20:34;;;;;;;;;;;;;;;0.04;100.00;102127.00;4976573;28;19964;-72
2023/04/27 05:22:59;;;;;;;;;;;;;;;0.12;100.00;102126.94;4977273;28;19921;-72
2023/04/27 05:25:24;;;;;;;;;;;;;;;0.23;100.00;102118.84;4978719;28;19921;-72
2023/04/27 05:27:49;;;;;;;;;;;;;;;0.31;100.00;102116.97;4976418;28;19921;-72
2023/04/27 05:30:15;;;;;;;;;;;;;;;0.36;100.00;102114.28;4975614;28;19925;-72
2023/04/27 05:32:40;;;;;;;;;;;;;;;0.45;100.00;102114.13;4979187;28;20004;-71
2023/04/27 05:35:05;;;;;;;;;;;;;;;0.52;100.00;102112.28;4978197;28;19928;-72
2023/04/27 05:37:30;;;;;;;;;;;;;;;0.65;100.00;102115.59;4977517;28;19928;-72
2023/04/27 05:39:56;;;;;;;;;;;;;;;0.80;100.00;102118.00;4961406;28;19929;-72
2023/04/27 05:42:21;;;;;;;;;;;;;;;1.00;100.00;102120.31;4976093;28;20454;-71
2023/04/27 05:44:46;;;;;;;;;;;;;;;1.17;100.00;102125.31;4976385;28;20377;-71
2023/04/27 05:47:11;;;;;;;;;;;;;;;1.39;100.00;102124.03;4991536;28;20563;-72
2023/04/27 05:49:36;;;;;;;;;;;;;;;1.63;100.00;102120.03;4977948;28;19921;-72
2023/04/27 05:52:03;;;;;;;;;;;;;;;1.88;100.00;102108.94;4975956;28;19922;-72
2023/04/27 05:54:28;;;;;;;;;;;;;;;2.16;100.00;102108.34;4977943;28;20451;-72
2023/04/27 05:56:53;;;;;;;;;;;;;;;2.36;100.00;102106.13;4976621;28;20460;-72
2023/04/27 05:59:18;;;;;;;;;;;;;;;2.56;100.00;102110.06;4975555;28;20023;-72
2023/04/27 06:01:44;;;;;;;;;;;;;;;2.78;100.00;102106.94;4978222;28;19997;-72
2023/04/27 06:04:09;;;;;;;;;;;;;;;2.91;100.00;102104.84;4978133;28;19921;-72
2023/04/27 06:06:34;;;;;;;;;;;;;;;3.12;100.00;102106.06;4978724;28;19937;-72
2023/04/27 06:08:59;;;;;;;;;;;;;;;3.35;100.00;102101.91;4979835;28;19961;-73
2023/04/27 06:11:25;;;;;;;;;;;;;;;3.47;100.00;102100.69;4978572;28;19961;-72
2023/04/27 06:13:50;;;;;;;;;;;;;;;3.56;100.00;102098.69;4979480;28;19928;-72
2023/04/27 06:16:15;;;;;;;;;;;;;;;3.64;100.00;102102.88;4979514;28;19922;-72
2023/04/27 06:18:41;;;;;;;;;;;;;;;3.78;100.00;102099.84;4976012;28;19925;-72
2023/04/27 06:21:06;;;;;;;;;;;;;;;3.91;100.00;102098.56;4983038;28;19928;-71
2023/04/27 06:23:31;;;;;;;;;;;;;;;4.10;100.00;102101.56;4978808;28;20380;-72
2023/04/27 06:25:57;;;;;;;;;;;;;;;4.38;100.00;102103.34;4978294;28;20373;-72
2023/04/27 06:28:22;;;;;;;;;;;;;;;4.47;100.00;102100.38;4977576;28;20419;-72
2023/04/27 06:30:48;;;;;;;;;;;;;;;4.71;100.00;102099.66;4976513;28;19928;-72
2023/04/27 06:33:13;;;;;;;;;;;;;;;4.79;100.00;102100.25;4978499;28;19928;-71
2023/04/27 06:35:38;;;;;;;;;;;;;;;5.01;100.00;102099.56;4980005;28;19922;-72
2023/04/27 06:38:03;;;;;;;;;;;;;;;5.08;100.00;102101.06;4980664;28;19983;-72
2023/04/27 06:40:29;;;;;;;;;;;;;;;5.22;100.00;102106.78;4980020;28;20048;-72
2023/04/27 06:42:54;;;;;;;;;;;;;;;5.52;100.00;102103.06;4975154;28;19925;-71
2023/04/27 06:45:19;;;;;;;;;;;;;;;5.43;100.00;102103.44;4977287;28;19925;-72
2023/04/27 06:47:45;;;;;;;;;;;;;;;5.54;100.00;102103.91;4976940;28;19952;-72
2023/04/27 06:50:10;;;;;;;;;;;;;;;5.77;100.00;102103.06;4976556;28;20402;-72
2023/04/27 06:52:35;;;;;;;;;;;;;;;5.95;100.00;102101.50;4972474;28;19952;-72
2023/04/27 06:55:01;;;;;;;;;;;;;;;6.05;100.00;102103.81;4977700;28;20399;-72
2023/04/27 06:57:26;;;;;;;;;;;;;;;6.17;100.00;102106.03;4973668;28;20273;-73
2023/04/27 06:59:52;;;;;;;;;;;;;;;6.47;100.00;102086.19;4974269;28;19968;-72
2023/04/27 07:02:17;;;;;;;;;;;;;;;6.70;100.00;102085.25;4978047;28;20379;-72
2023/04/27 07:04:42;;;;;;;;;;;;;;;7.05;100.00;102096.22;4980758;28;19917;-72
2023/04/27 07:07:07;;;;;;;;;;;;;;;7.22;100.00;102084.81;4977494;28;19969;-72
2023/04/27 07:09:32;;;;;;;;;;;;;;;7.23;100.00;102094.56;4979044;28;20012;-74
2023/04/27 07:12:00;;;;;;;;;;;;;;;6.97;100.00;102088.56;4995673;28;19928;-74
2023/04/27 07:14:25;;;;;;;;;;;;;;;7.16;100.00;102077.06;4981340;28;20296;-72
2023/04/27 07:16:50;;;;;;;;;;;;;;;7.49;100.00;102085.41;4995088;28;19926;-72
2023/04/27 07:19:16;;;;;;;;;;;;;;;7.68;100.00;102087.25;4982457;28;20123;-71
2023/04/27 07:21:41;;;;;;;;;;;;;;;7.99;99.58;102090.28;4980716;28;19937;-71
2023/04/27 07:24:06;;;;;;;;;;;;;;;8.19;96.69;102095.59;4985802;28;19922;-74
2023/04/27 07:26:32;;;;;;;;;;;;;;;8.13;85.47;102090.53;4978305;28;19956;-72
2023/04/27 07:28:57;;;;;;;;;;;;;;;8.15;80.15;102093.13;5001366;28;19929;-73
2023/04/27 07:31:22;;;;;;;;;;;;;;;8.40;74.68;102093.66;4980107;28;19921;-72
2023/04/27 07:33:47;;;;;;;;;;;;;;;8.56;75.62;102098.31;4980981;28;20412;-73
2023/04/27 07:36:13;;;;;;;;;;;;;;;8.68;77.63;102102.19;4980591;28;20399;-71
2023/04/27 07:38:38;;;;;;;;;;;;;;;8.76;81.59;102097.31;4981640;28;20333;-74
2023/04/27 07:41:04;;;;;;;;;;;;;;;8.57;78.68;102089.34;4981379;28;20428;-72
2023/04/27 07:43:30;;;;;;;;;;;;;;;8.22;81.68;102095.41;4993952;28;20428;-74
2023/04/27 07:45:57;;;;;;;;;;;;;;;8.28;79.36;102094.28;4978189;28;19921;-72
2023/04/27 07:48:22;;;;;;;;;;;;;;;8.40;77.80;102096.34;4981803;28;19922;-72
2023/04/27 07:50:48;;;;;;;;;;;;;;;8.47;81.24;102093.38;4983339;28;19918;-73
2023/04/27 07:53:13;;;;;;;;;;;;;;;8.55;81.03;102084.06;4978117;28;20412;-72
2023/04/27 07:55:38;;;;;;;;;;;;;;;8.79;74.83;102090.97;4996507;28;20313;-72
2023/04/27 07:58:03;;;;;;;;;;;;;;;8.94;74.12;102087.47;4977799;28;20823;-72
2023/04/27 08:00:29;;;;;;;;;;;;;;;9.12;84.69;102080.31;4979028;28;19987;-72
2023/04/27 08:02:54;;;;;;;;;;;;;;;9.25;76.46;102085.06;4979711;28;19926;-72
2023/04/27 08:05:19;;;;;;;;;;;;;;;9.20;87.63;102079.91;4994064;28;19964;-74
2023/04/27 08:07:45;;;;;;;;;;;;;;;9.00;82.65;102072.94;4978581;28;19961;-73
2023/04/27 08:10:10;;;;;;;;;;;;;;;9.17;84.90;102089.94;4961012;28;19928;-73
2023/04/27 08:12:35;;;;;;;;;;;;;;;8.94;84.66;102089.31;4965089;28;20403;-73
2023/04/27 08:15:00;;;;;;;;;;;;;;;9.31;86.31;102084.72;4997379;28;19922;-73
2023/04/27 08:17:26;;;;;;;;;;;;;;;9.08;85.11;102088.59;4965223;28;20487;-73
2023/04/27 08:19:51;;;;;;;;;;;;;;;9.31;80.48;102092.75;4982056;28;20419;-72
2023/04/27 08:22:16;;;;;;;;;;;;;;;9.11;75.31;102099.16;4996380;28;20585;-72
2023/04/27 08:24:41;;;;;;;;;;;;;;;9.26;78.91;102090.31;4963688;28;19945;-72
2023/04/27 08:27:07;;;;;;;;;;;;;;;9.37;72.96;102095.13;4978985;28;20334;-73
2023/04/27 08:29:32;;;;;;;;;;;;;;;9.58;75.71;102090.44;4978091;28;21202;-72
2023/04/27 08:31:58;;;;;;;;;;;;;;;9.88;74.81;102095.09;4982380;28;20423;-72
2023/04/27 08:34:23;;;;;;;;;;;;;;;9.96;67.03;102100.03;4977877;28;19944;-72
2023/04/27 08:36:48;;;;;;;;;;;;;;;9.61;72.85;102097.44;4979926;28;19922;-73
2023/04/27 08:39:14;;;;;;;;;;;;;;;9.39;67.26;102089.69;4977857;28;19929;-73
2023/04/27 08:41:41;;;;;;;;;;;;;;;9.78;70.26;102088.47;4978031;28;20411;-72
2023/04/27 08:44:06;;;;;;;;;;;;;;;10.05;74.01;102083.44;4977567;28;20357;-72
2023/04/27 08:46:31;;;;;;;;;;;;;;;9.81;72.58;102080.28;4961857;28;20114;-74
2023/04/27 08:48:57;;;;;;;;;;;;;;;9.63;64.83;102086.66;4992166;28;19972;-72
2023/04/27 08:51:24;;;;;;;;;;;;;;;10.06;67.45;102074.38;4975402;28;20008;-73
2023/04/27 08:53:50;;;;;;;;;;;;;;;10.38;67.89;102073.53;4978390;28;19922;-72
2023/04/27 08:56:16;;;;;;;;;;;;;;;10.41;62.31;102070.72;4961474;28;19926;-72
2023/04/27 08:58:41;;;;;;;;;;;;;;;10.69;72.97;102077.16;4978130;28;19969;-72
2023/04/27 09:01:07;;;;;;;;;;;;;;;10.90;62.62;102074.16;4993354;28;20360;-72
2023/04/27 09:03:33;;;;;;;;;;;;;;;10.95;64.75;102075.63;4993764;28;20357;-72
2023/04/27 09:05:58;;;;;;;;;;;;;;;11.01;59.83;102068.16;4978295;28;20088;-72
2023/04/27 09:08:24;;;;;;;;;;;;;;;10.67;59.13;102072.81;4980672;28;20292;-72
2023/04/27 09:10:50;;;;;;;;;;;;;;;10.55;60.84;102069.91;4977683;28;19933;-75
2023/04/27 09:13:15;;;;;;;;;;;;;;;10.49;58.33;102064.91;4977536;28;19925;-72
2023/04/27 09:15:44;;;;;;;;;;;;;;;11.21;61.29;102066.94;4979529;28;19929;-72
2023/04/27 09:18:16;;;;;;;;;;;;;;;11.29;55.93;102069.16;4978923;28;20412;-72
2023/04/27 09:20:49;;;;;;;;;;;;;;;11.34;61.67;102067.06;4977262;28;19930;-72
2023/04/27 09:23:26;;;;;;;;;;;;;;;11.55;58.85;102071.09;4976808;28;19953;-72
2023/04/27 09:25:52;;;;;;;;;;;;;;;11.60;54.98;102061.88;4975843;28;19933;-72
2023/04/27 09:28:17;;;;;;;;;;;;;;;12.11;60.76;102056.84;4976139;28;19922;-72
2023/04/27 09:30:49;;;;;;;;;;;;;;;12.29;55.16;102056.59;4976436;28;20320;-72
2023/04/27 09:33:14;;;;;;;;;;;;;;;12.32;54.36;102063.59;4993111;28;20376;-72
2023/04/27 09:35:40;;;;;;;;;;;;;;;12.09;49.73;102058.78;4978449;28;20200;-72
2023/04/27 09:38:05;;;;;;;;;;;;;;;11.92;53.06;102057.13;4992364;28;19928;-72
2023/04/27 09:40:30;;;;;;;;;;;;;;;12.13;51.68;102054.94;4960963;28;20284;-72
2023/04/27 09:42:56;;;;;;;;;;;;;;;12.01;49.79;102055.72;4993010;28;19929;-72
2023/04/27 09:45:22;;;;;;;;;;;;;;;11.78;53.31;102054.47;4975340;28;19952;-72
2023/04/27 09:47:47;;;;;;;;;;;;;;;12.14;49.69;102050.38;4979367;28;20540;-72
2023/04/27 09:50:13;;;;;;;;;;;;;;;12.24;51.73;102034.50;4978979;28;19921;-72
2023/04/27 09:52:38;;;;;;;;;;;;;;;12.40;46.34;102047.81;4979568;28;19922;-72
2023/04/27 09:55:04;;;;;;;;;;;;;;;12.40;46.87;102048.69;4977156;28;19977;-72
2023/04/27 09:57:29;;;;;;;;;;;;;;;12.63;45.18;102043.59;4990414;28;19925;-71
2023/04/27 09:59:58;;;;;;;;;;;;;;;12.64;48.34;102048.00;4975739;28;19932;-72
2023/04/27 10:02:23;;;;;;;;;;;;;;;13.11;48.72;102039.47;4991856;28;19950;-71
2023/04/27 10:04:48;;;;;;;;;;;;;;;13.02;46.82;102043.66;4974447;28;20012;-72
2023/04/27 10:07:14;;;;;;;;;;;;;;;12.96;43.71;102038.69;4977821;28;19948;-72
2023/04/27 10:09:40;;;;;;;;;;;;;;;13.20;45.46;102039.69;4990075;28;20008;-71
2023/04/27 10:12:19;;;;;;;;;;;;;;;13.34;47.51;102040.56;4978365;28;19932;-73
2023/04/27 10:14:51;;;;;;;;;;;;;;;13.19;45.33;102043.34;4975803;28;19929;-71
2023/04/27 10:17:16;;;;;;;;;;;;;;;13.49;45.07;102046.72;4975721;28;20272;-72
2023/04/27 10:19:52;;;;;;;;;;;;;;;13.56;45.66;102037.19;4978844;28;20401;-72
2023/04/27 10:22:17;;;;;;;;;;;;;;;13.74;46.04;102036.88;4976415;28;19929;-72
2023/04/27 10:24:43;;;;;;;;;;;;;;;14.06;42.84;102047.13;4976888;28;19922;-72
2023/04/27 10:27:09;;;;;;;;;;;;;;;13.54;43.02;102041.00;4973845;28;19949;-71
2023/04/27 10:29:38;;;;;;;;;;;;;;;14.14;45.47;102042.03;4974165;28;20020;-71
2023/04/27 10:32:23;;;;;;;;;;;;;;;14.66;43.15;102037.28;4980864;28;19928;-71
2023/04/27 10:34:49;;;;;;;;;;;;;;;14.55;47.08;102031.81;4975706;28;19933;-72
2023/04/27 10:37:15;;;;;;;;;;;;;;;14.73;40.84;102032.28;4978891;28;20003;-72
2023/04/27 10:39:41;;;;;;;;;;;;;;;14.47;41.74;102029.69;4979411;28;20410;-71
2023/04/27 10:42:07;;;;;;;;;;;;;;;14.39;42.36;102030.28;4976530;28;19918;-73
2023/04/27 10:44:33;;;;;;;;;;;;;;;14.70;41.09;102027.97;4976894;28;19932;-72
2023/04/27 10:47:18;;;;;;;;;;;;;;;15.26;41.21;102028.22;4976511;28;19922;-72
2023/04/27 10:49:43;;;;;;;;;;;;;;;15.73;39.29;102030.81;4976364;28;19932;-71
2023/04/27 10:52:09;;;;;;;;;;;;;;;16.01;37.63;102029.44;4995810;28;19922;-72
2023/04/27 10:54:35;;;;;;;;;;;;;;;16.14;38.11;102023.88;4979509;28;19925;-71
2023/04/27 10:57:08;;;;;;;;;;;;;;;16.34;40.49;102024.94;4978912;28;19925;-71
2023/04/27 10:59:36;;;;;;;;;;;;;;;15.51;39.43;102024.41;4915938;28;1755980;-72
2023/04/27 11:02:01;;;;;;;;;;;;;;;15.29;42.89;102033.41;4981276;28;20337;-73
2023/04/27 11:04:39;;;;;;;;;;;;;;;15.00;39.28;102020.31;4978714;28;19921;-72
2023/04/27 11:07:05;;;;;;;;;;;;;;;15.79;42.33;102007.78;4959427;28;20392;-71
2023/04/27 11:09:30;;;;;;;;;;;;;;;16.75;37.01;102018.81;4995643;28;19926;-72
2023/04/27 11:11:55;;;;;;;;;;;;;;;17.20;38.28;102007.75;4981645;28;19929;-72
2023/04/27 11:14:20;;;;;;;;;;;;;;;17.65;41.67;101998.31;4981146;28;19922;-71
2023/04/27 11:16:46;;;;;;;;;;;;;;;18.20;35.41;102001.63;4979662;28;19929;-72
2023/04/27 11:19:11;;;;;;;;;;;;;;;17.86;35.16;101996.53;4982915;28;19929;-72
2023/04/27 11:21:37;;;;;;;;;;;;;;;17.55;34.65;101989.31;4982634;28;20321;-72
2023/04/27 11:24:05;;;;;;;;;;;;;;;16.98;39.29;101987.03;4981980;28;19921;-73
2023/04/27 11:26:31;;;;;;;;;;;;;;;16.19;39.84;101996.38;4979917;28;20192;-72
2023/04/27 11:29:08;;;;;;;;;;;;;;;16.70;34.67;101983.97;4978869;28;20196;-72
2023/04/27 11:31:48;;;;;;;;;;;;;;;17.56;36.03;101979.28;4980890;28;20315;-71
2023/04/27 11:34:20;;;;;;;;;;;;;;;17.39;34.49;101985.22;4994982;28;19928;-71
2023/04/27 11:36:55;;;;;;;;;;;;;;;18.88;35.30;101966.22;4980522;28;19961;-73
2023/04/27 11:39:21;;;;;;;;;;;;;;;18.13;32.10;101982.31;4978798;28;20266;-71
2023/04/27 11:41:46;;;;;;;;;;;;;;;18.86;33.81;101968.25;4981320;28;19925;-72
2023/04/27 11:44:12;;;;;;;;;;;;;;;18.77;32.95;101966.38;4979588;28;20028;-72
2023/04/27 11:46:37;;;;;;;;;;;;;;;19.27;29.75;101986.19;4977669;28;19930;-72
2023/04/27 11:49:03;;;;;;;;;;;;;;;20.08;33.02;101954.66;4994704;28;19926;-72
2023/04/27 11:51:29;;;;;;;;;;;;;;;19.36;31.09;101968.97;4978541;28;20040;-72
2023/04/27 11:53:54;;;;;;;;;;;;;;;19.52;30.94;101962.88;4964001;28;19945;-73
2023/04/27 11:56:19;;;;;;;;;;;;;;;18.99;35.10;101942.59;4983645;28;19925;-72
2023/04/27 11:58:46;;;;;;;;;;;;;;;18.71;33.77;101969.69;4973637;28;19961;-71
2023/04/27 12:01:11;;;;;;;;;;;;;;;18.39;32.65;101960.00;4981133;28;19921;-71
2023/04/27 12:03:37;;;;;;;;;;;;;;;18.73;31.22;101970.41;4978734;28;19931;-72
2023/04/27 12:06:02;;;;;;;;;;;;;;;18.72;33.37;101953.22;4978731;28;19965;-71
2023/04/27 12:08:27;;;;;;;;;;;;;;;18.47;31.63;101956.56;4978404;28;20004;-71
2023/04/27 12:10:52;;;;;;;;;;;;;;;19.17;31.29;101951.72;4980094;28;19964;-73
2023/04/27 12:13:18;;;;;;;;;;;;;;;19.35;34.87;101931.84;4978525;28;19980;-71
2023/04/27 12:15:43;;;;;;;;;;;;;;;20.28;30.56;101954.50;4979713;28;20014;-71
2023/04/27 12:18:08;;;;;;;;;;;;;;;20.72;32.23;101946.31;4977375;28;19930;-71
2023/04/27 12:20:34;;;;;;;;;;;;;;;20.90;29.99;101962.66;4977518;28;19921;-71
2023/04/27 12:22:59;;;;;;;;;;;;;;;20.64;28.72;101974.41;4979520;28;20398;-73
2023/04/27 12:25:24;;;;;;;;;;;;;;;19.52;30.51;101942.94;4994275;28;19926;-73
2023/04/27 12:27:49;;;;;;;;;;;;;;;20.06;31.65;101940.31;4977379;28;19929;-72